Time;durP1;ratioP1;P1;durP2;ratioP2;P2;SDS_P1;SDS_P2;PMS_P1;PMS_P2;Temp;Humidity;BMP_temperature;BMP_pressure;BME280_temperature;BME280_humidity;BME280_pressure;Samples;Min_cycle;Max_cycle;Signal;HPM_P1;HPM_P2
2023/10/20 17:12:52;;;;;;;13.30;5.30;;;;;;;3.73;100.00;98378.25;103227;1291;600978;-64
2023/10/20 17:15:40;;;;;;;11.50;4.40;;;;;;;3.70;100.00;98382.31;104955;1266;60348;-68
2023/10/20 17:18:31;;;;;;;12.30;4.30;;;;;;;3.70;100.00;98389.38;104986;1271;59744;-66
2023/10/20 17:21:20;;;;;;;10.40;4.50;;;;;;;3.69;100.00;98381.52;104847;1266;71332;-68
2023/10/20 17:24:10;;;;;;;9.40;3.90;;;;;;;3.69;100.00;98378.19;104787;1271;68496;-66
2023/10/20 17:26:58;;;;;;;9.80;4.30;;;;;;;3.69;100.00;98381.38;104997;1265;215656;-68
2023/10/20 17:29:51;;;;;;;9.80;4.00;;;;;;;3.71;100.00;98391.91;105514;1263;59680;-68
2023/10/20 17:32:39;;;;;;;9.60;3.80;;;;;;;3.72;100.00;98380.61;105542;1257;60839;-67
2023/10/20 17:35:27;;;;;;;9.40;4.00;;;;;;;3.72;100.00;98378.30;105507;1256;69612;-67
2023/10/20 17:38:15;;;;;;;8.50;3.80;;;;;;;3.74;100.00;98384.50;105523;1257;69443;-64
2023/10/20 17:41:09;;;;;;;10.30;4.00;;;;;;;3.75;100.00;98373.36;105371;1258;71124;-65
2023/10/20 17:43:59;;;;;;;11.70;4.50;;;;;;;3.77;100.00;98377.78;105472;1262;59356;-67
2023/10/20 17:46:48;;;;;;;8.60;4.00;;;;;;;3.79;100.00;98374.89;105669;1260;60229;-67
2023/10/20 17:49:36;;;;;;;10.60;3.80;;;;;;;3.79;100.00;98377.33;105478;1262;71228;-67
2023/10/20 17:52:24;;;;;;;9.10;4.10;;;;;;;3.76;100.00;98364.14;105478;1261;68452;-68
2023/10/20 17:55:12;;;;;;;8.90;3.80;;;;;;;3.76;100.00;98361.55;105420;1262;74149;-64
2023/10/20 17:58:01;;;;;;;9.80;4.60;;;;;;;3.76;100.00;98364.33;105429;1261;60003;-67
2023/10/20 18:00:51;;;;;;;11.10;4.40;;;;;;;3.79;100.00;98374.51;105196;1259;60787;-67
2023/10/20 18:03:42;;;;;;;10.90;4.30;;;;;;;3.79;100.00;98369.91;105400;1262;71675;-68
2023/10/20 18:06:33;;;;;;;14.70;5.20;;;;;;;3.77;100.00;98362.34;105143;1262;68474;-64
2023/10/20 18:09:21;;;;;;;21.50;7.40;;;;;;;3.75;100.00;98364.73;105231;1258;71827;-66
2023/10/20 18:12:11;;;;;;;14.10;5.20;;;;;;;3.76;100.00;98369.09;105451;1256;59873;-66
2023/10/20 18:14:59;;;;;;;10.70;4.50;;;;;;;3.76;100.00;98370.86;106192;1256;59658;-64
2023/10/20 18:17:48;;;;;;;9.30;3.80;;;;;;;3.75;100.00;98364.95;105753;1262;69983;-63
2023/10/20 18:20:40;;;;;;;10.40;4.20;;;;;;;3.76;100.00;98366.24;106323;1259;66621;-66
2023/10/20 18:23:28;;;;;;;8.30;3.70;;;;;;;3.77;100.00;98358.46;105485;1261;74282;-67
2023/10/20 18:26:17;;;;;;;9.60;3.80;;;;;;;3.77;100.00;98359.54;105335;1262;59186;-67
2023/10/20 18:29:05;;;;;;;8.50;3.70;;;;;;;3.75;100.00;98359.50;105601;1257;61243;-66
2023/10/20 18:31:53;;;;;;;8.60;3.70;;;;;;;3.72;100.00;98361.65;106513;1258;71248;-68
2023/10/20 18:34:42;;;;;;;13.00;4.50;;;;;;;3.73;100.00;98357.89;105139;1262;68114;-66
2023/10/20 18:37:31;;;;;;;9.00;3.80;;;;;;;3.73;100.00;98368.05;105463;1257;73935;-66
2023/10/20 18:40:19;;;;;;;13.20;4.90;;;;;;;3.74;100.00;98366.27;105350;1257;59341;-66
2023/10/20 18:43:08;;;;;;;12.20;4.60;;;;;;;3.74;100.00;98369.73;105434;1265;59981;-66
2023/10/20 18:45:58;;;;;;;10.80;3.90;;;;;;;3.74;100.00;98371.65;104585;1257;1003018;-64
2023/10/20 18:48:48;;;;;;;12.50;4.20;;;;;;;3.72;100.00;98363.61;105347;1257;68722;-65
2023/10/20 18:51:36;;;;;;;10.20;4.40;;;;;;;3.71;100.00;98355.23;105469;1262;73106;-66
2023/10/20 18:54:25;;;;;;;9.30;3.90;;;;;;;3.70;100.00;98343.61;105304;1257;60039;-65
2023/10/20 18:57:14;;;;;;;7.90;3.50;;;;;;;3.70;100.00;98354.78;105382;1263;60704;-65
2023/10/20 19:00:04;;;;;;;9.20;4.10;;;;;;;3.69;100.00;98357.67;105298;1265;72919;-64
2023/10/20 19:02:53;;;;;;;8.40;3.80;;;;;;;3.68;100.00;98367.92;105723;1259;67160;-64
2023/10/20 19:05:43;;;;;;;8.50;3.50;;;;;;;3.68;100.00;98373.39;105685;1261;72703;-65
2023/10/20 19:08:32;;;;;;;11.60;5.00;;;;;;;3.69;100.00;98382.27;105647;1260;59372;-64
2023/10/20 19:11:21;;;;;;;11.10;4.10;;;;;;;3.69;100.00;98379.41;106044;1258;59948;-63
2023/10/20 19:14:08;;;;;;;8.50;3.60;;;;;;;3.71;100.00;98385.27;105807;1257;70146;-66
2023/10/20 19:16:57;;;;;;;9.90;4.00;;;;;;;3.72;100.00;98375.55;105830;1258;68258;-65
2023/10/20 19:19:49;;;;;;;12.90;4.30;;;;;;;3.72;100.00;98382.48;105733;1258;73158;-64
2023/10/20 19:22:38;;;;;;;12.00;4.90;;;;;;;3.75;100.00;98383.89;105526;1260;59225;-64
2023/10/20 19:25:28;;;;;;;11.30;4.30;;;;;;;3.75;100.00;98389.00;105436;1254;61887;-65
2023/10/20 19:28:18;;;;;;;10.20;4.20;;;;;;;3.75;100.00;98381.96;105825;1256;71836;-63
2023/10/20 19:31:10;;;;;;;10.10;3.80;;;;;;;3.72;100.00;98382.50;105814;1259;66482;-63
2023/10/20 19:34:00;;;;;;;8.80;3.40;;;;;;;3.71;100.00;98374.34;105791;1259;72958;-63
2023/10/20 19:36:48;;;;;;;11.70;4.60;;;;;;;3.72;100.00;98384.48;105719;1259;60056;-64
2023/10/20 19:39:37;;;;;;;10.10;4.80;;;;;;;3.73;100.00;98378.25;105572;1259;60881;-63
2023/10/20 19:42:25;;;;;;;8.60;3.50;;;;;;;3.72;100.00;98380.81;105638;1253;72990;-64
2023/10/20 19:45:15;;;;;;;11.90;4.70;;;;;;;3.71;100.00;98380.70;105868;1256;68479;-65
2023/10/20 19:48:04;;;;;;;10.90;4.30;;;;;;;3.70;100.00;98378.31;105713;1264;72403;-64
2023/10/20 19:50:53;;;;;;;9.80;4.20;;;;;;;3.70;100.00;98376.90;105520;1261;59695;-67
2023/10/20 19:53:41;;;;;;;10.80;4.20;;;;;;;3.71;100.00;98373.31;105509;1260;62132;-67
2023/10/20 19:56:29;;;;;;;12.40;4.20;;;;;;;3.70;100.00;98371.81;105524;1261;73062;-66
2023/10/20 19:59:19;;;;;;;12.90;4.60;;;;;;;3.70;100.00;98370.08;105299;1262;66303;-66
2023/10/20 20:02:08;;;;;;;13.00;5.30;;;;;;;3.70;100.00;98377.98;105691;1258;73047;-65
2023/10/20 20:04:57;;;;;;;9.90;4.10;;;;;;;3.69;100.00;98374.56;105503;1254;59394;-66
2023/10/20 20:07:46;;;;;;;9.90;4.50;;;;;;;3.67;100.00;98372.74;105641;1255;60992;-63
2023/10/20 20:10:34;;;;;;;10.70;4.20;;;;;;;3.67;100.00;98370.13;105702;1256;72157;-65
2023/10/20 20:13:22;;;;;;;9.70;3.50;;;;;;;3.66;100.00;98361.94;106653;1257;67841;-66
2023/10/20 20:16:15;;;;;;;8.70;3.60;;;;;;;3.66;100.00;98365.63;105794;1254;73319;-64
2023/10/20 20:19:03;;;;;;;8.00;3.60;;;;;;;3.66;100.00;98355.28;105856;1257;59230;-64
2023/10/20 20:21:51;;;;;;;8.30;3.50;;;;;;;3.66;100.00;98353.67;105809;1259;59972;-65
2023/10/20 20:24:40;;;;;;;7.50;3.20;;;;;;;3.65;100.00;98340.59;106006;1256;72029;-66
2023/10/20 20:27:29;;;;;;;8.70;3.20;;;;;;;3.66;100.00;98348.08;104742;1260;1002926;-67
2023/10/20 20:30:20;;;;;;;9.50;3.50;;;;;;;3.66;100.00;98351.60;105520;1259;73416;-66
2023/10/20 20:33:08;;;;;;;7.50;3.10;;;;;;;3.65;100.00;98345.67;105651;1258;59217;-65
2023/10/20 20:35:58;;;;;;;9.40;3.90;;;;;;;3.65;100.00;98346.59;105552;1255;60902;-66
2023/10/20 20:38:47;;;;;;;8.90;3.30;;;;;;;3.65;100.00;98341.83;105651;1260;71913;-70
2023/10/20 20:41:36;;;;;;;9.10;3.50;;;;;;;3.65;100.00;98339.95;105601;1260;69473;-66
2023/10/20 20:44:25;;;;;;;9.00;3.20;;;;;;;3.65;100.00;98332.75;105472;1254;73053;-66
2023/10/20 20:47:14;;;;;;;12.40;3.80;;;;;;;3.65;100.00;98333.05;106205;1257;59368;-66
2023/10/20 20:50:04;;;;;;;7.30;3.10;;;;;;;3.65;100.00;98335.54;105871;1260;60952;-70
2023/10/20 20:53:01;;;;;;;7.60;3.20;;;;;;;3.66;100.00;98334.23;105614;1254;71940;-66
2023/10/20 20:55:51;;;;;;;9.40;3.40;;;;;;;3.68;100.00;98340.39;105634;1254;66626;-65
2023/10/20 20:58:39;;;;;;;8.80;3.10;;;;;;;3.70;100.00;98333.62;105863;1257;74133;-64
2023/10/20 21:01:30;;;;;;;8.50;3.30;;;;;;;3.70;100.00;98328.30;105970;1255;59263;-63
2023/10/20 21:04:21;;;;;;;8.40;3.30;;;;;;;3.71;100.00;98322.97;105823;1267;59390;-65
2023/10/20 21:07:10;;;;;;;8.00;3.00;;;;;;;3.70;100.00;98317.92;105023;1254;1003345;-63
2023/10/20 21:09:58;;;;;;;11.30;3.90;;;;;;;3.70;100.00;98318.48;105857;1257;69465;-65
2023/10/20 21:12:47;;;;;;;9.50;3.80;;;;;;;3.72;100.00;98313.98;105107;1253;1003735;-65
2023/10/20 21:15:36;;;;;;;11.50;3.80;;;;;;;3.74;100.00;98298.39;105637;1257;59533;-65
2023/10/20 21:18:24;;;;;;;9.00;3.00;;;;;;;3.76;100.00;98301.55;105775;1258;59947;-67
2023/10/20 21:21:16;;;;;;;7.50;2.70;;;;;;;3.77;100.00;98303.59;106254;1255;72910;-67
2023/10/20 21:24:05;;;;;;;8.10;3.00;;;;;;;3.78;100.00;98297.18;105768;1257;69184;-66
2023/10/20 21:26:54;;;;;;;7.80;3.50;;;;;;;3.79;100.00;98294.67;105561;1260;74125;-65
2023/10/20 21:29:42;;;;;;;8.80;3.10;;;;;;;3.79;100.00;98275.52;105773;1255;59342;-64
2023/10/20 21:32:31;;;;;;;7.80;2.90;;;;;;;3.80;100.00;98267.02;105959;1254;60648;-66
2023/10/20 21:35:19;;;;;;;9.20;3.40;;;;;;;3.80;100.00;98267.42;105766;1254;70409;-65
2023/10/20 21:38:07;;;;;;;7.20;2.70;;;;;;;3.80;100.00;98274.21;105830;1258;69179;-64
2023/10/20 21:40:58;;;;;;;10.40;2.90;;;;;;;3.82;100.00;98275.45;105718;1257;73211;-64
2023/10/20 21:43:47;;;;;;;7.40;3.10;;;;;;;3.84;100.00;98265.48;105787;1267;61137;-63
2023/10/20 21:46:36;;;;;;;6.80;3.10;;;;;;;3.85;100.00;98277.52;105812;1257;59808;-64
2023/10/20 21:49:25;;;;;;;8.20;3.10;;;;;;;3.86;100.00;98269.68;105020;1260;1003798;-64
2023/10/20 21:52:13;;;;;;;8.50;2.90;;;;;;;3.87;100.00;98281.59;105893;1257;68459;-64
2023/10/20 21:55:01;;;;;;;10.20;3.40;;;;;;;3.89;100.00;98293.73;105516;1258;71187;-65
2023/10/20 21:57:51;;;;;;;7.10;3.00;;;;;;;3.90;100.00;98297.97;105882;1257;59173;-66
2023/10/20 22:00:39;;;;;;;7.80;2.60;;;;;;;3.92;100.00;98290.13;106020;1256;60818;-66
2023/10/20 22:03:40;;;;;;;7.10;2.40;;;;;;;3.92;100.00;98298.52;105661;1260;72360;-68
2023/10/20 22:06:31;;;;;;;8.50;2.80;;;;;;;3.93;100.00;98295.35;105975;1257;67048;-66
2023/10/20 22:09:21;;;;;;;7.40;2.40;;;;;;;3.94;100.00;98288.55;105785;1260;71845;-67
2023/10/20 22:12:09;;;;;;;7.30;2.70;;;;;;;3.96;100.00;98293.02;106057;1257;59246;-67
2023/10/20 22:14:58;;;;;;;6.90;2.50;;;;;;;3.97;100.00;98301.90;105822;1254;60684;-66
2023/10/20 22:17:46;;;;;;;8.30;2.40;;;;;;;3.96;100.00;98300.85;105809;1254;72715;-65
2023/10/20 22:20:34;;;;;;;7.10;2.70;;;;;;;3.97;100.00;98289.55;105995;1257;67626;-67
2023/10/20 22:23:23;;;;;;;7.60;3.10;;;;;;;3.96;100.00;98286.11;105775;1254;73349;-63
2023/10/20 22:26:11;;;;;;;7.70;3.10;;;;;;;3.96;100.00;98276.33;105850;1255;59948;-64
2023/10/20 22:29:00;;;;;;;8.90;3.00;;;;;;;3.95;100.00;98274.51;105673;1260;60881;-64
2023/10/20 22:31:48;;;;;;;8.90;2.90;;;;;;;3.96;100.00;98278.12;105676;1254;71395;-66
2023/10/20 22:34:36;;;;;;;8.00;3.10;;;;;;;3.92;100.00;98278.52;105771;1258;68417;-63
2023/10/20 22:37:25;;;;;;;11.30;2.80;;;;;;;3.96;100.00;98296.13;105708;1254;73159;-67
2023/10/20 22:40:13;;;;;;;8.80;3.10;;;;;;;3.96;100.00;98305.41;105776;1257;59750;-65
2023/10/20 22:43:01;;;;;;;7.10;2.50;;;;;;;3.98;100.00;98302.47;105622;1261;59958;-66
2023/10/20 22:45:50;;;;;;;7.10;2.50;;;;;;;3.99;100.00;98290.11;105852;1259;72858;-65
2023/10/20 22:48:37;;;;;;;7.00;3.10;;;;;;;3.99;100.00;98274.15;105550;1264;68430;-65
2023/10/20 22:51:25;;;;;;;7.80;2.40;;;;;;;4.01;100.00;98272.96;105739;1260;74164;-63
2023/10/20 22:54:14;;;;;;;6.60;2.30;;;;;;;4.01;100.00;98257.84;105875;1257;59466;-65
2023/10/20 22:57:04;;;;;;;7.20;2.60;;;;;;;4.02;100.00;98242.48;105796;1260;61867;-64
2023/10/20 22:59:52;;;;;;;8.00;2.00;;;;;;;4.03;100.00;98246.11;105617;1254;72762;-66
2023/10/20 23:02:40;;;;;;;6.40;2.20;;;;;;;4.01;100.00;98235.70;105898;1257;68131;-64
2023/10/20 23:05:29;;;;;;;6.60;2.10;;;;;;;4.02;100.00;98236.73;105896;1254;74771;-64
2023/10/20 23:08:17;;;;;;;8.10;2.20;;;;;;;4.02;100.00;98233.73;105777;1257;59708;-66
2023/10/20 23:11:06;;;;;;;8.00;2.40;;;;;;;4.01;100.00;98242.22;105965;1254;59390;-64
2023/10/20 23:13:54;;;;;;;7.80;2.00;;;;;;;4.02;100.00;98233.41;105758;1255;72830;-65
2023/10/20 23:16:43;;;;;;;6.40;1.80;;;;;;;4.01;100.00;98231.48;105930;1257;68711;-65
2023/10/20 23:19:31;;;;;;;7.10;2.20;;;;;;;4.01;100.00;98232.20;105962;1254;73054;-65
2023/10/20 23:22:19;;;;;;;9.50;2.50;;;;;;;4.01;100.00;98223.95;105855;1254;60167;-64
2023/10/20 23:25:08;;;;;;;5.80;1.90;;;;;;;4.02;100.00;98222.67;105751;1259;59483;-63
2023/10/20 23:27:56;;;;;;;5.60;1.70;;;;;;;4.01;100.00;98215.52;105712;1255;72424;-63
2023/10/20 23:30:45;;;;;;;7.90;2.50;;;;;;;4.01;100.00;98225.33;105785;1257;68548;-66
2023/10/20 23:33:34;;;;;;;6.90;1.80;;;;;;;4.04;100.00;98230.95;105503;1260;73164;-66
2023/10/20 23:36:22;;;;;;;5.00;1.60;;;;;;;4.03;100.00;98235.52;105499;1260;59955;-66
2023/10/20 23:39:10;;;;;;;6.90;2.00;;;;;;;4.02;100.00;98241.92;105450;1257;59817;-66
2023/10/20 23:42:00;;;;;;;6.10;1.70;;;;;;;4.02;100.00;98252.15;105389;1257;70630;-65
2023/10/20 23:44:49;;;;;;;8.00;1.60;;;;;;;4.03;100.00;98255.20;105362;1261;69279;-66
2023/10/20 23:47:37;;;;;;;6.60;1.90;;;;;;;4.03;100.00;98255.02;105640;1260;72247;-63
2023/10/20 23:50:25;;;;;;;6.70;1.90;;;;;;;4.05;100.00;98265.23;105604;1261;60199;-65
2023/10/20 23:53:14;;;;;;;6.80;1.80;;;;;;;4.04;100.00;98257.39;105615;1257;59857;-65
2023/10/20 23:56:02;;;;;;;5.20;1.30;;;;;;;4.04;100.00;98250.20;105689;1257;72640;-66
2023/10/20 23:58:50;;;;;;;6.90;2.00;;;;;;;4.04;100.00;98246.36;105306;1262;67180;-67
